Time;durP1;ratioP1;P1;durP2;ratioP2;P2;SDS_P1;SDS_P2;PMS_P1;PMS_P2;Temp;Humidity;BMP_temperature;BMP_pressure;BME280_temperature;BME280_humidity;BME280_pressure;Samples;Min_cycle;Max_cycle;Signal;HPM_P1;HPM_P2
2023/07/24 00:02:15;;;;;;;3.67;0.95;;;;;;;22.17;100.00;100660.44;5010251;28;20057;-79
2023/07/24 00:04:40;;;;;;;1.70;0.95;;;;;;;22.07;100.00;100652.81;5015458;28;20130;-78
2023/07/24 00:07:06;;;;;;;2.58;1.40;;;;;;;22.11;100.00;100643.72;5008921;28;20049;-78
2023/07/24 00:09:31;;;;;;;2.25;1.20;;;;;;;21.50;100.00;100561.78;5013060;28;20053;-78
2023/07/24 00:11:58;;;;;;;1.40;1.30;;;;;;;21.60;100.00;100588.97;5018051;28;20064;-80
2023/07/24 00:14:24;;;;;;;3.88;2.00;;;;;;;21.92;100.00;100643.69;5016143;28;20374;-79
2023/07/24 00:16:50;;;;;;;1.92;0.82;;;;;;;21.89;100.00;100645.59;5011660;28;20084;-78
2023/07/24 00:19:15;;;;;;;7.80;2.05;;;;;;;21.33;100.00;100556.28;5012639;28;20087;-79
2023/07/24 00:21:40;;;;;;;2.75;1.08;;;;;;;21.80;100.00;100630.00;5006168;28;20130;-78
2023/07/24 00:24:06;;;;;;;3.75;2.45;;;;;;;21.59;100.00;100579.22;5024694;28;20037;-77
2023/07/24 00:26:31;;;;;;;1.25;0.85;;;;;;;21.33;100.00;100539.38;5015621;28;20030;-77
2023/07/24 00:29:00;;;;;;;1.65;0.90;;;;;;;21.94;100.00;100659.66;5011532;28;20045;-76
2023/07/24 00:31:25;;;;;;;3.00;1.33;;;;;;;21.49;100.00;100593.88;5014906;28;20128;-77
2023/07/24 00:33:51;;;;;;;4.90;2.20;;;;;;;21.71;100.00;100616.09;5012272;28;20133;-77
2023/07/24 00:36:16;;;;;;;1.92;1.15;;;;;;;21.29;100.00;100546.66;5019866;28;20428;-77
2023/07/24 00:38:42;;;;;;;5.38;1.95;;;;;;;21.76;100.00;100637.25;5019019;28;20432;-77
2023/07/24 00:41:07;;;;;;;4.18;1.67;;;;;;;21.82;100.00;100663.72;5021400;28;20440;-76
2023/07/24 00:43:33;;;;;;;1.67;1.08;;;;;;;21.45;100.00;100609.19;5023539;28;20497;-79
2023/07/24 00:45:59;;;;;;;2.97;1.67;;;;;;;21.00;100.00;100545.19;5018588;28;20066;-78
2023/07/24 00:48:24;;;;;;;3.33;1.67;;;;;;;21.68;100.00;100645.59;5022260;28;20049;-78
2023/07/24 00:50:50;;;;;;;6.35;1.30;;;;;;;21.81;100.00;100651.28;5020535;28;20131;-79
2023/07/24 00:53:17;;;;;;;1.63;1.30;;;;;;;21.37;100.00;100581.03;5006870;28;20827;-77
2023/07/24 00:55:46;;;;;;;2.40;1.45;;;;;;;21.63;100.00;100628.91;5012941;28;20083;-76
2023/07/24 00:58:12;;;;;;;3.70;1.23;;;;;;;21.63;100.00;100628.03;5008474;28;20056;-78
2023/07/24 01:00:39;;;;;;;3.22;1.38;;;;;;;21.54;100.00;100605.28;5012022;28;20037;-77
2023/07/24 01:03:05;;;;;;;3.40;1.30;;;;;;;21.65;100.00;100620.81;5013030;28;20078;-78
2023/07/24 01:05:30;;;;;;;4.63;1.48;;;;;;;21.66;100.00;100628.78;5015696;28;20813;-77
2023/07/24 01:07:56;;;;;;;1.40;0.70;;;;;;;21.36;100.00;100548.13;5011271;28;20050;-78
2023/07/24 01:10:22;;;;;;;2.05;1.02;;;;;;;21.08;100.00;100497.72;5008097;28;20536;-77
2023/07/24 01:12:56;;;;;;;3.03;1.48;;;;;;;21.80;100.00;100628.19;5008929;28;20061;-77
2023/07/24 01:15:29;;;;;;;2.33;1.58;;;;;;;;;;5015856;28;20045;-77
2023/07/24 01:18:00;;;;;;;2.03;1.40;;;;;;;21.65;100.00;100628.84;5017655;28;20033;-76
2023/07/24 01:20:28;;;;;;;2.67;1.27;;;;;;;21.54;100.00;100623.97;5009115;28;20043;-76
2023/07/24 01:23:22;;;;;;;2.90;1.08;;;;;;;21.53;100.00;100627.56;5017854;28;20064;-76
2023/07/24 01:25:54;;;;;;;3.83;1.35;;;;;;;21.48;100.00;100632.22;5007807;28;20041;-78
2023/07/24 01:28:19;;;;;;;5.13;1.13;;;;;;;21.32;100.00;100620.41;5010860;28;20792;-78
2023/07/24 01:30:45;;;;;;;3.35;1.42;;;;;;;20.84;100.00;100548.50;5008450;28;20045;-81
2023/07/24 01:33:11;;;;;;;2.50;1.30;;;;;;;20.62;100.00;100505.81;5016791;28;20458;-79
2023/07/24 01:35:38;;;;;;;3.03;2.00;;;;;;;21.23;100.00;100597.63;5022586;28;20056;-80
2023/07/24 01:38:04;;;;;;;3.72;1.33;;;;;;;20.82;100.00;100608.19;5014928;28;20405;-78
2023/07/24 01:40:31;;;;;;;4.05;2.10;;;;;;;21.03;100.00;100643.81;5007631;28;20180;-80
2023/07/24 01:42:59;;;;;;;10.20;1.85;;;;;;;20.49;100.00;100525.03;4991983;28;20129;-81
2023/07/24 01:45:24;;;;;;;4.63;2.70;;;;;;;21.16;100.00;100639.69;4996535;28;20129;-79
2023/07/24 01:47:50;;;;;;;4.00;1.92;;;;;;;20.42;100.00;100521.72;5013069;28;20141;-80
2023/07/24 01:50:15;;;;;;;2.33;1.38;;;;;;;20.35;100.00;100526.41;5001755;28;20042;-78
2023/07/24 01:52:41;;;;;;;3.80;1.75;;;;;;;21.15;100.00;100671.81;4999389;28;20046;-79
2023/07/24 01:55:07;;;;;;;5.13;1.92;;;;;;;20.51;100.00;100555.13;5001960;28;20034;-79
2023/07/24 01:57:32;;;;;;;3.28;2.25;;;;;;;20.50;100.00;100567.59;4990058;28;20042;-77
2023/07/24 01:59:57;;;;;;;4.65;1.58;;;;;;;20.72;100.00;100597.00;4992648;28;20077;-78
2023/07/24 02:02:23;;;;;;;3.25;1.75;;;;;;;20.39;100.00;100538.69;5014595;28;20033;-81
2023/07/24 02:04:48;;;;;;;1.90;0.73;;;;;;;21.16;100.00;100681.53;4999009;28;20046;-79
2023/07/24 02:07:14;;;;;;;2.55;1.50;;;;;;;20.61;100.00;100585.88;4997739;28;20164;-78
2023/07/24 02:09:39;;;;;;;2.80;1.17;;;;;;;21.06;100.00;100649.00;4998502;28;20557;-79
2023/07/24 02:12:06;;;;;;;2.83;1.75;;;;;;;20.72;100.00;100634.34;5013001;28;20095;-80
2023/07/24 02:14:31;;;;;;;4.32;1.65;;;;;;;21.02;100.00;100682.94;5015719;28;20097;-76
2023/07/24 02:16:57;;;;;;;3.05;1.52;;;;;;;21.08;100.00;100689.84;5019620;28;20445;-77
2023/07/24 02:19:22;;;;;;;6.63;2.38;;;;;;;20.42;100.00;100569.69;5008777;28;20074;-75
2023/07/24 02:21:47;;;;;;;6.68;3.05;;;;;;;20.70;100.00;100620.19;5011214;28;20065;-76
2023/07/24 02:24:13;;;;;;;4.75;1.52;;;;;;;20.36;100.00;100553.94;5012937;28;20057;-80
2023/07/24 02:26:38;;;;;;;2.58;1.95;;;;;;;21.09;100.00;100686.25;5012947;28;20137;-76
2023/07/24 02:29:04;;;;;;;2.20;1.77;;;;;;;21.10;100.00;100701.34;5014504;28;20684;-76
2023/07/24 02:31:29;;;;;;;4.30;2.40;;;;;;;20.99;100.00;100672.41;5011601;28;20045;-76
2023/07/24 02:33:55;;;;;;;4.07;1.75;;;;;;;20.41;100.00;100567.94;5012056;28;20517;-77
2023/07/24 02:36:20;;;;;;;5.82;4.05;;;;;;;20.94;100.00;100658.38;5016133;28;20529;-77
2023/07/24 02:38:46;;;;;;;1.92;1.27;;;;;;;20.44;100.00;100603.38;5013601;28;20021;-80
2023/07/24 02:41:11;;;;;;;2.95;1.55;;;;;;;20.98;100.00;100691.16;5011077;28;20313;-79
2023/07/24 02:43:37;;;;;;;4.20;2.35;;;;;;;20.83;100.00;100661.44;5016426;28;20045;-78
2023/07/24 02:46:02;;;;;;;2.80;1.65;;;;;;;20.32;100.00;100595.84;5011992;28;20528;-79
2023/07/24 02:48:28;;;;;;;4.22;2.05;;;;;;;20.95;100.00;100697.44;5016548;28;20548;-80
2023/07/24 02:50:54;;;;;;;5.68;2.75;;;;;;;20.39;100.00;100592.00;5013967;28;20029;-77
2023/07/24 02:53:19;;;;;;;4.28;1.67;;;;;;;20.57;100.00;100646.44;5006123;28;20541;-78
2023/07/24 02:55:45;;;;;;;3.53;2.00;;;;;;;20.70;100.00;100668.19;5018541;28;20459;-79
2023/07/24 02:58:14;;;;;;;4.40;2.78;;;;;;;20.74;100.00;100672.47;5020832;28;20100;-77
2023/07/24 03:00:39;;;;;;;4.05;2.03;;;;;;;20.24;100.00;100574.78;5018453;28;20057;-78
2023/07/24 03:03:05;;;;;;;4.50;2.78;;;;;;;20.11;100.00;100568.19;5013451;28;20659;-77
2023/07/24 03:05:31;;;;;;;3.92;1.75;;;;;;;20.36;100.00;100604.56;5020016;28;20052;-78
2023/07/24 03:07:57;;;;;;;2.45;1.65;;;;;;;20.27;100.00;100588.91;5021008;28;20057;-79
2023/07/24 03:10:25;;;;;;;2.92;1.67;;;;;;;20.54;100.00;100640.34;5017615;28;20147;-79
2023/07/24 03:12:50;;;;;;;4.18;1.67;;;;;;;20.58;100.00;100647.31;5011827;28;20417;-78
2023/07/24 03:15:16;;;;;;;4.68;1.80;;;;;;;20.16;100.00;100568.88;5023983;28;20034;-79
2023/07/24 03:17:41;;;;;;;5.10;1.77;;;;;;;20.08;100.00;100551.44;5013134;28;20041;-80
2023/07/24 03:20:17;;;;;;;2.67;1.67;;;;;;;20.42;100.00;100615.88;5013997;28;20033;-78
2023/07/24 03:22:44;;;;;;;3.50;2.22;;;;;;;20.33;100.00;100594.91;5015905;28;20076;-78
2023/07/24 03:25:10;;;;;;;4.43;2.72;;;;;;;20.68;100.00;100646.03;5016812;28;20712;-77
2023/07/24 03:27:38;;;;;;;5.75;2.45;;;;;;;20.26;100.00;100595.19;5019487;28;20056;-79
2023/07/24 03:30:04;;;;;;;3.65;2.38;;;;;;;20.22;100.00;100565.97;5014750;28;20393;-79
2023/07/24 03:32:29;;;;;;;4.80;2.15;;;;;;;20.24;100.00;100565.91;5015753;28;20113;-78
2023/07/24 03:34:55;;;;;;;3.13;1.80;;;;;;;20.42;100.00;100633.66;5014477;28;20387;-79
2023/07/24 03:37:20;;;;;;;5.90;2.25;;;;;;;20.21;100.00;100624.66;5050949;28;20042;-78
2023/07/24 03:39:46;;;;;;;5.63;2.28;;;;;;;20.35;100.00;100629.50;5009383;28;20046;-78
2023/07/24 03:42:14;;;;;;;3.05;1.70;;;;;;;19.40;100.00;100471.31;5011267;28;20424;-79
2023/07/24 03:44:40;;;;;;;5.35;2.83;;;;;;;20.46;100.00;100648.59;5016588;28;20130;-78
2023/07/24 03:47:06;;;;;;;2.22;1.25;;;;;;;20.53;100.00;100650.09;5015206;28;20045;-82
2023/07/24 03:49:31;;;;;;;2.50;1.70;;;;;;;20.53;100.00;100650.09;5014526;28;20064;-78
2023/07/24 03:51:57;;;;;;;10.02;2.15;;;;;;;20.45;100.00;100638.88;5017130;28;20486;-79
2023/07/24 03:54:22;;;;;;;2.97;1.55;;;;;;;20.87;100.00;100672.88;5010786;28;20398;-79
2023/07/24 03:56:47;;;;;;;3.20;1.83;;;;;;;20.66;100.00;100616.75;5015814;28;20041;-80
2023/07/24 03:59:13;;;;;;;4.22;2.47;;;;;;;20.76;100.00;100621.75;5014937;28;20041;-79
2023/07/24 04:01:38;;;;;;;2.50;1.63;;;;;;;20.10;100.00;100546.91;5013112;28;20568;-80
2023/07/24 04:04:04;;;;;;;2.45;1.95;;;;;;;20.50;100.00;100646.72;5010053;28;20435;-78
2023/07/24 04:06:29;;;;;;;3.17;1.92;;;;;;;20.54;100.00;100664.34;5016969;28;20046;-79
2023/07/24 04:08:55;;;;;;;8.43;3.05;;;;;;;20.22;100.00;100579.28;5016033;28;20435;-80
2023/07/24 04:11:20;;;;;;;3.65;1.92;;;;;;;20.18;100.00;100528.84;5015258;28;20034;-79
2023/07/24 04:13:46;;;;;;;3.13;1.67;;;;;;;20.68;100.00;100635.38;5008505;28;20050;-80
2023/07/24 04:16:11;;;;;;;3.00;2.05;;;;;;;20.84;100.00;100636.53;5008394;28;20058;-79
2023/07/24 04:18:36;;;;;;;3.60;1.55;;;;;;;20.14;100.00;100546.75;5014245;28;20104;-79
2023/07/24 04:21:02;;;;;;;3.35;2.17;;;;;;;21.06;100.00;100663.22;5011758;28;20021;-80
2023/07/24 04:23:27;;;;;;;3.88;2.47;;;;;;;21.14;100.00;100657.59;5003567;28;20100;-79
2023/07/24 04:25:53;;;;;;;3.65;2.15;;;;;;;20.33;100.00;100540.72;5015685;28;20050;-77
2023/07/24 04:28:18;;;;;;;4.47;1.30;;;;;;;21.07;100.00;100650.75;5013669;28;20053;-79
2023/07/24 04:30:44;;;;;;;4.68;2.40;;;;;;;20.75;100.00;100564.88;5011789;28;20861;-77
2023/07/24 04:33:09;;;;;;;3.35;1.65;;;;;;;21.22;100.00;100644.81;5006302;28;20116;-78
2023/07/24 04:35:35;;;;;;;4.53;1.80;;;;;;;21.22;100.00;100626.13;5011655;28;20053;-79
2023/07/24 04:38:00;;;;;;;2.42;1.48;;;;;;;20.86;100.00;100538.66;5012018;28;20050;-77
2023/07/24 04:40:26;;;;;;;3.80;1.80;;;;;;;21.60;100.00;100636.19;5023985;28;20327;-77
2023/07/24 04:42:51;;;;;;;2.40;1.55;;;;;;;20.64;100.00;100466.63;5014729;28;20049;-77
2023/07/24 04:45:17;;;;;;;4.72;2.88;;;;;;;21.76;100.00;100631.06;5010662;28;20138;-79
2023/07/24 04:47:42;;;;;;;2.90;1.55;;;;;;;21.16;100.00;100550.78;5009607;28;20033;-79
2023/07/24 04:50:08;;;;;;;3.42;2.03;;;;;;;21.23;100.00;100544.25;5007347;28;20046;-77
2023/07/24 04:52:33;;;;;;;6.40;3.00;;;;;;;21.27;100.00;100554.72;5008776;28;20450;-77
2023/07/24 04:54:59;;;;;;;5.65;2.38;;;;;;;21.40;100.00;100546.22;4992879;28;20179;-79
2023/07/24 04:57:24;;;;;;;2.33;1.33;;;;;;;21.13;100.00;100490.41;4985528;28;20054;-79
2023/07/24 04:59:50;;;;;;;4.50;1.95;;;;;;;21.53;100.00;100550.09;4990995;28;20084;-78
2023/07/24 05:02:15;;;;;;;4.88;1.98;;;;;;;22.03;100.00;100643.22;4984403;28;20196;-79
2023/07/24 05:04:41;;;;;;;3.65;2.22;;;;;;;22.38;100.00;100635.44;4987502;28;20042;-77
2023/07/24 05:07:07;;;;;;;5.95;1.50;;;;;;;22.21;100.00;100574.72;4989063;28;20053;-78
2023/07/24 05:09:32;;;;;;;3.35;2.22;;;;;;;22.10;100.00;100545.78;4997233;28;20097;-78
2023/07/24 05:11:57;;;;;;;3.22;1.90;;;;;;;22.69;100.00;100645.59;5014305;28;20041;-78
2023/07/24 05:14:23;;;;;;;5.80;2.95;;;;;;;22.67;100.00;100630.56;5003329;28;20034;-77
2023/07/24 05:16:48;;;;;;;4.68;2.92;;;;;;;22.37;100.00;100569.53;4994571;28;20100;-76
2023/07/24 05:19:14;;;;;;;6.15;1.95;;;;;;;22.46;100.00;100571.78;4996261;28;20765;-76
2023/07/24 05:21:39;;;;;;;3.25;1.73;;;;;;;22.69;100.00;100545.78;4993120;28;20050;-79
2023/07/24 05:24:05;;;;;;;5.32;2.47;;;;;;;22.94;100.00;100532.94;5005363;28;20030;-76
2023/07/24 05:26:30;;;;;;;2.70;2.00;;;;;;;23.43;100.00;100551.00;4990533;28;20031;-76
2023/07/24 05:28:56;;;;;;;7.13;3.85;;;;;;;23.95;100.00;100617.13;4988950;28;20057;-77
2023/07/24 05:31:21;;;;;;;5.15;2.67;;;;;;;24.68;100.00;100641.88;4986675;28;20820;-78
2023/07/24 05:33:47;;;;;;;4.45;2.72;;;;;;;24.11;100.00;100536.75;4985985;28;20046;-77
2023/07/24 05:36:12;;;;;;;3.42;1.63;;;;;;;24.56;100.00;100567.38;4991809;28;20445;-78
2023/07/24 05:38:37;;;;;;;3.85;2.28;;;;;;;25.49;100.00;100641.78;5017620;28;20056;-77
2023/07/24 05:41:03;;;;;;;3.20;1.90;;;;;;;26.49;100.00;100635.75;5001901;28;20042;-77
2023/07/24 05:43:30;;;;;;;2.58;1.88;;;;;;;26.42;100.00;100553.69;4994903;28;20491;-77
2023/07/24 05:45:57;;;;;;;5.80;2.08;;;;;;;26.17;100.00;100627.00;4987295;28;20116;-78
2023/07/24 05:48:23;;;;;;;2.92;1.33;;;;;;;25.64;100.00;100551.31;4999768;28;20051;-79
2023/07/24 05:50:48;;;;;;;4.55;4.15;;;;;;;25.67;100.00;100559.19;5013121;28;20018;-79
2023/07/24 05:53:14;;;;;;;2.40;1.10;;;;;;;25.70;100.00;100514.16;4991945;28;20042;-79
2023/07/24 05:55:42;;;;;;;2.67;1.35;;;;;;;26.98;100.00;100621.88;4992611;28;20053;-77
2023/07/24 05:58:08;;;;;;;2.15;1.50;;;;;;;27.94;100.00;100613.69;4988085;28;20054;-80
2023/07/24 06:00:34;;;;;;;4.65;2.35;;;;;;;27.99;100.00;100601.59;4984590;28;20050;-79
2023/07/24 06:02:59;;;;;;;2.35;1.27;;;;;;;28.04;100.00;100622.84;5015964;28;20407;-78
2023/07/24 06:05:24;;;;;;;3.65;1.75;;;;;;;28.08;100.00;100591.16;4987039;28;20045;-78
2023/07/24 06:07:50;;;;;;;2.95;1.45;;;;;;;28.05;100.00;100513.09;5015418;28;20486;-79
2023/07/24 06:10:15;;;;;;;1.95;1.08;;;;;;;28.44;100.00;100549.84;4996157;28;20047;-78
2023/07/24 06:12:41;;;;;;;1.85;1.30;;;;;;;27.67;100.00;100578.66;4995823;28;20137;-78
2023/07/24 06:15:07;;;;;;;3.47;1.70;;;;;;;28.44;100.00;100549.84;5001362;28;20053;-78
2023/07/24 06:17:32;;;;;;;4.65;1.00;;;;;;;27.54;100.00;100506.72;4983493;28;20134;-78
2023/07/24 06:19:58;;;;;;;3.92;2.17;;;;;;;28.77;100.00;100603.25;5010277;28;20124;-80
2023/07/24 06:22:24;;;;;;;5.70;2.72;;;;;;;28.93;100.00;100594.03;4992924;28;21941;-79
2023/07/24 06:24:49;;;;;;;3.47;1.77;;;;;;;28.75;100.00;100591.72;5001341;28;20042;-80
2023/07/24 06:27:15;;;;;;;2.90;1.70;;;;;;;28.84;100.00;100611.78;5005017;28;20126;-80
2023/07/24 06:29:40;;;;;;;2.70;1.70;;;;;;;28.36;100.00;100555.81;4993348;28;20126;-79
2023/07/24 06:32:07;;;;;;;2.63;1.42;;;;;;;29.23;100.00;100596.31;4986791;28;20049;-78
2023/07/24 06:34:32;;;;;;;4.72;1.90;;;;;;;27.93;100.00;100604.75;4991341;28;20856;-78
2023/07/24 06:36:58;;;;;;;2.40;1.48;;;;;;;27.95;100.00;100537.19;4993693;28;20053;-77
2023/07/24 06:39:24;;;;;;;4.13;1.92;;;;;;;28.65;100.00;100587.09;5008451;28;20490;-77
2023/07/24 06:41:52;;;;;;;2.35;1.40;;;;;;;27.74;100.00;100515.25;5000838;28;20215;-80
2023/07/24 06:44:17;;;;;;;3.58;2.05;;;;;;;28.26;100.00;100576.34;5014431;28;20517;-79
2023/07/24 06:46:43;;;;;;;3.45;1.77;;;;;;;28.12;100.00;100593.53;5026461;28;20054;-78
2023/07/24 06:49:08;;;;;;;1.88;1.67;;;;;;;28.20;98.89;100557.88;5019077;28;20107;-78
2023/07/24 06:51:34;;;;;;;3.58;1.60;;;;;;;28.74;100.00;100505.41;5008747;28;20045;-79
2023/07/24 06:54:00;;;;;;;6.07;1.92;;;;;;;27.85;99.78;100501.91;5008603;28;20120;-79
2023/07/24 06:56:26;;;;;;;2.97;1.25;;;;;;;28.16;100.00;100541.03;5009183;28;20083;-73
2023/07/24 06:58:51;;;;;;;1.35;0.90;;;;;;;28.18;100.00;100531.00;5037994;28;20050;-73
2023/07/24 07:01:17;;;;;;;4.55;1.45;;;;;;;28.65;100.00;100512.34;5013379;28;20050;-71
2023/07/24 07:03:42;;;;;;;4.07;1.95;;;;;;;28.65;100.00;100524.97;5013835;28;20398;-72
2023/07/24 07:06:09;;;;;;;2.70;1.60;;;;;;;29.04;96.17;100608.47;5018154;28;20036;-71
2023/07/24 07:08:35;;;;;;;3.58;1.45;;;;;;;28.03;99.29;100531.25;5011102;28;20473;-71
2023/07/24 07:11:01;;;;;;;3.90;2.25;;;;;;;27.86;100.00;100518.94;5022259;28;20063;-71
2023/07/24 07:13:27;;;;;;;2.05;1.15;;;;;;;28.42;100.00;100578.78;5013740;28;20123;-70
2023/07/24 07:15:53;;;;;;;1.77;1.42;;;;;;;27.95;95.76;100499.41;5018809;28;20442;-71
2023/07/24 07:18:18;;;;;;;3.10;1.67;;;;;;;28.78;97.45;100579.81;5012891;28;20141;-72
2023/07/24 07:20:51;;;;;;;2.28;1.33;;;;;;;29.07;100.00;100585.78;5021156;28;20488;-72
2023/07/24 07:23:17;;;;;;;2.78;1.80;;;;;;;29.00;99.74;100585.34;5008005;28;20053;-72
2023/07/24 07:25:45;;;;;;;1.65;1.15;;;;;;;28.35;100.00;100519.00;5008451;28;23477;-72
2023/07/24 07:28:16;;;;;;;2.92;1.90;;;;;;;28.74;100.00;100584.59;5014371;28;20069;-71
2023/07/24 07:30:43;;;;;;;3.60;1.80;;;;;;;28.17;96.49;100490.66;5017663;28;20141;-72
2023/07/24 07:33:08;;;;;;;2.25;1.70;;;;;;;28.38;98.71;100486.38;5010165;28;20029;-71
2023/07/24 07:35:35;;;;;;;3.05;1.40;;;;;;;28.88;91.46;100588.13;5014253;28;20207;-76
2023/07/24 07:38:01;;;;;;;4.93;2.45;;;;;;;28.95;93.58;100579.44;5010320;28;20085;-75
2023/07/24 07:40:27;;;;;;;1.83;1.05;;;;;;;28.99;89.88;100574.66;5011558;28;20124;-78
2023/07/24 07:42:53;;;;;;;1.20;0.80;;;;;;;28.99;96.94;100559.31;5013264;28;20053;-77
2023/07/24 07:45:19;;;;;;;7.55;4.43;;;;;;;28.38;97.33;100485.53;5015288;28;20099;-75
2023/07/24 07:47:45;;;;;;;2.92;2.20;;;;;;;28.48;92.44;100492.00;5018675;28;20560;-73
2023/07/24 07:50:11;;;;;;;3.10;1.55;;;;;;;28.74;92.42;100529.72;5017165;28;20046;-74
2023/07/24 07:52:36;;;;;;;2.38;1.10;;;;;;;28.29;88.60;100460.06;5015546;28;20050;-76
2023/07/24 07:55:02;;;;;;;1.85;1.27;;;;;;;28.95;89.20;100562.38;5013380;28;20108;-72
2023/07/24 07:57:28;;;;;;;2.00;1.27;;;;;;;28.66;88.45;100478.97;5005277;28;20069;-74
2023/07/24 07:59:53;;;;;;;2.33;0.93;;;;;;;28.93;89.89;100535.44;5005287;28;20046;-75
2023/07/24 08:02:18;;;;;;;1.92;1.40;;;;;;;29.04;80.23;100559.81;5002229;28;20040;-79
2023/07/24 08:04:44;;;;;;;5.00;2.95;;;;;;;28.54;88.45;100469.94;5000714;28;20046;-80
2023/07/24 08:07:09;;;;;;;6.55;1.88;;;;;;;29.19;90.56;100555.13;5005460;28;20050;-77
2023/07/24 08:09:37;;;;;;;2.97;1.85;;;;;;;28.65;86.42;100471.84;5005790;28;20096;-79
2023/07/24 08:12:03;;;;;;;4.05;2.38;;;;;;;29.35;78.38;100545.88;5003796;28;20128;-72
2023/07/24 08:14:30;;;;;;;3.83;1.63;;;;;;;29.09;71.33;100481.16;5001353;28;20087;-75
2023/07/24 08:16:55;;;;;;;23.42;13.57;;;;;;;29.29;78.58;100560.72;5003519;28;20046;-75
2023/07/24 08:19:20;;;;;;;9.40;6.78;;;;;;;29.21;77.61;100544.22;5007459;28;20073;-74
2023/07/24 08:21:47;;;;;;;8.30;7.13;;;;;;;28.94;81.84;100449.84;5004563;28;20049;-74
2023/07/24 08:24:12;;;;;;;6.68;3.75;;;;;;;29.73;80.42;100550.16;4992420;28;20103;-76
2023/07/24 08:26:38;;;;;;;5.22;2.83;;;;;;;29.40;73.42;100487.72;4998887;28;20478;-75
2023/07/24 08:29:04;;;;;;;13.43;5.35;;;;;;;29.41;76.48;100453.47;5007441;28;20113;-77
2023/07/24 08:31:30;;;;;;;78.93;39.35;;;;;;;29.31;78.46;100469.53;5003894;28;20042;-76
2023/07/24 08:33:55;;;;;;;4.90;2.33;;;;;;;29.58;72.58;100544.94;5001616;28;20104;-77
2023/07/24 08:36:21;;;;;;;1.65;1.08;;;;;;;29.95;73.06;100538.53;5003217;28;20033;-74
2023/07/24 08:38:47;;;;;;;4.22;1.45;;;;;;;29.35;71.17;100472.88;5008219;28;20056;-75
2023/07/24 08:41:14;;;;;;;4.38;1.67;;;;;;;30.20;70.86;100546.38;5005508;28;20046;-75
2023/07/24 08:43:41;;;;;;;6.57;2.08;;;;;;;29.83;67.13;100451.09;5006983;28;20057;-78
2023/07/24 08:46:08;;;;;;;2.63;1.70;;;;;;;29.22;72.42;100524.28;5006653;28;20485;-76
2023/07/24 08:48:39;;;;;;;12.70;3.97;;;;;;;29.45;73.90;100453.13;5007527;28;20072;-75
2023/07/24 08:51:09;;;;;;;11.77;4.07;;;;;;;30.68;70.74;100510.91;5004243;28;20049;-75
2023/07/24 08:53:36;;;;;;;17.10;6.22;;;;;;;31.19;72.25;100514.81;5003391;28;20030;-76
2023/07/24 08:56:03;;;;;;;10.80;5.90;;;;;;;31.31;64.92;100518.34;5006755;28;20100;-78
2023/07/24 08:58:29;;;;;;;8.52;4.85;;;;;;;31.21;64.27;100415.25;4999965;28;20973;-68
2023/07/24 09:00:56;;;;;;;12.57;2.85;;;;;;;30.36;60.80;100420.63;5001775;28;20046;-71
2023/07/24 09:03:22;;;;;;;6.47;2.40;;;;;;;31.07;59.55;100435.41;5001106;28;20037;-68
2023/07/24 09:05:47;;;;;;;9.60;5.40;;;;;;;32.12;60.59;100511.31;4998717;28;20096;-67
2023/07/24 09:08:13;;;;;;;6.43;3.30;;;;;;;31.21;56.72;100509.25;4999641;28;20061;-68
2023/07/24 09:10:39;;;;;;;2.88;1.85;;;;;;;31.44;57.22;100510.03;5005257;28;20428;-68
2023/07/24 09:13:04;;;;;;;7.65;2.22;;;;;;;31.55;58.45;100434.00;5005835;28;20177;-68
2023/07/24 09:15:43;;;;;;;6.72;3.58;;;;;;;31.93;57.72;100432.44;5005505;28;20049;-69
2023/07/24 09:18:09;;;;;;;3.83;2.67;;;;;;;32.46;54.00;100491.94;4997374;28;20025;-69
2023/07/24 09:20:42;;;;;;;5.22;3.40;;;;;;;32.56;57.00;100470.25;5003526;28;20048;-68
2023/07/24 09:23:09;;;;;;;7.43;5.53;;;;;;;32.83;55.78;100485.00;4999746;28;20104;-69
2023/07/24 09:25:36;;;;;;;8.82;4.20;;;;;;;32.93;53.34;100469.56;4998156;28;20046;-69
2023/07/24 09:28:18;;;;;;;5.78;2.85;;;;;;;32.99;53.54;100396.44;5005565;28;20139;-70
2023/07/24 09:30:55;;;;;;;4.85;3.08;;;;;;;33.03;52.27;100385.28;4999149;28;20053;-67
2023/07/24 09:33:22;;;;;;;7.78;3.08;;;;;;;33.49;52.21;100463.38;5001104;28;20126;-69
2023/07/24 09:35:59;;;;;;;5.68;2.08;;;;;;;32.13;49.42;100460.56;4995395;28;20050;-68
2023/07/24 09:38:24;;;;;;;4.78;2.70;;;;;;;31.88;51.29;100462.72;5005659;28;20052;-72
2023/07/24 09:40:52;;;;;;;5.60;4.15;;;;;;;32.62;50.93;100376.47;5005584;28;20494;-70
2023/07/24 09:43:19;;;;;;;5.82;3.60;;;;;;;33.49;49.49;100448.91;5000839;28;20100;-68
2023/07/24 09:45:46;;;;;;;4.32;3.05;;;;;;;33.40;51.47;100418.00;5002994;28;20046;-68
2023/07/24 09:48:14;;;;;;;5.30;4.03;;;;;;;32.04;50.54;100369.94;5005375;28;20065;-68
2023/07/24 09:50:42;;;;;;;3.45;1.45;;;;;;;31.05;49.00;100357.94;5006621;28;20029;-67
2023/07/24 09:53:17;;;;;;;2.05;1.08;;;;;;;31.40;49.04;100359.38;4999352;28;20042;-66
2023/07/24 09:55:51;;;;;;;4.70;1.95;;;;;;;32.71;48.19;100419.94;5004885;28;20045;-65
2023/07/24 09:58:18;;;;;;;2.70;1.98;;;;;;;33.61;49.11;100439.59;5005826;28;20444;-68
2023/07/24 10:00:44;;;;;;;10.25;3.35;;;;;;;32.95;45.52;100421.34;5017399;28;20058;-70
2023/07/24 10:03:10;;;;;;;4.97;2.92;;;;;;;33.46;45.94;100414.69;5002960;28;20034;-71
2023/07/24 10:05:36;;;;;;;3.40;2.13;;;;;;;34.21;45.19;100421.00;5003348;28;20539;-69
2023/07/24 10:08:02;;;;;;;4.53;3.25;;;;;;;34.38;45.38;100418.44;5005557;28;20057;-69
2023/07/24 10:10:32;;;;;;;4.13;3.53;;;;;;;33.68;43.97;100359.06;5001947;28;20432;-69
2023/07/24 10:12:58;;;;;;;3.85;2.38;;;;;;;33.79;45.70;100366.16;5002253;28;20418;-70
2023/07/24 10:15:24;;;;;;;6.90;4.28;;;;;;;33.55;43.90;100318.56;5003958;28;20049;-69
2023/07/24 10:17:49;;;;;;;4.47;2.47;;;;;;;33.72;43.14;100365.91;5005888;28;20048;-71
2023/07/24 10:20:16;;;;;;;9.50;4.95;;;;;;;34.43;43.45;100407.94;5006338;28;20481;-70
2023/07/24 10:22:42;;;;;;;5.97;3.55;;;;;;;34.15;42.78;100399.78;5001359;28;20092;-69
2023/07/24 10:25:09;;;;;;;5.85;4.35;;;;;;;33.92;42.77;100328.53;5001624;28;20049;-74
2023/07/24 10:27:46;;;;;;;5.43;3.05;;;;;;;34.96;41.44;100389.84;5005121;28;20066;-71
2023/07/24 10:30:11;;;;;;;11.43;4.97;;;;;;;35.17;41.09;100384.94;5000725;28;20494;-75
2023/07/24 10:32:47;;;;;;;4.97;3.05;;;;;;;33.26;41.35;100377.66;5005125;28;20034;-72
2023/07/24 10:35:13;;;;;;;6.50;4.00;;;;;;;33.29;44.10;100382.81;5003666;28;20556;-70
2023/07/24 10:37:38;;;;;;;6.03;2.53;;;;;;;34.55;41.76;100378.56;5000632;28;20089;-68
2023/07/24 10:40:05;;;;;;;5.50;4.32;;;;;;;35.05;42.08;100378.84;5003610;28;20088;-72
2023/07/24 10:42:33;;;;;;;4.88;2.22;;;;;;;34.59;39.91;100309.97;5001462;28;20038;-73
2023/07/24 10:45:05;;;;;;;3.28;2.60;;;;;;;35.11;38.77;100377.38;5004431;28;20462;-73
2023/07/24 10:47:30;;;;;;;4.72;2.85;;;;;;;35.29;39.31;100386.38;4999674;28;20474;-71
2023/07/24 10:49:57;;;;;;;4.25;2.42;;;;;;;34.48;41.22;100378.34;5006313;28;20070;-70
2023/07/24 10:52:40;;;;;;;3.03;2.03;;;;;;;33.83;39.24;100296.78;5000814;28;20549;-74
2023/07/24 10:55:06;;;;;;;2.75;1.75;;;;;;;34.73;40.64;100368.53;5006163;28;20038;-74
2023/07/24 10:57:32;;;;;;;4.82;2.95;;;;;;;35.01;39.93;100358.34;4994963;28;20405;-71
2023/07/24 10:59:59;;;;;;;1.58;1.08;;;;;;;33.76;40.21;100288.38;5004869;28;20092;-73
2023/07/24 11:02:24;;;;;;;5.45;3.28;;;;;;;35.08;40.54;100344.94;4998934;28;20744;-73
2023/07/24 11:04:50;;;;;;;3.15;1.52;;;;;;;34.48;39.17;100262.00;4994038;28;20104;-71
2023/07/24 11:07:15;;;;;;;4.15;2.35;;;;;;;34.85;40.15;100257.34;4995191;28;20418;-72
2023/07/24 11:09:41;;;;;;;4.47;2.65;;;;;;;35.27;39.56;100317.44;5004536;28;20042;-68
2023/07/24 11:12:14;;;;;;;4.05;2.95;;;;;;;35.66;39.48;100318.81;5002303;28;20025;-68
2023/07/24 11:14:51;;;;;;;3.97;2.00;;;;;;;35.35;39.94;100348.53;4997742;28;20196;-70
2023/07/24 11:17:17;;;;;;;3.83;2.10;;;;;;;35.29;39.59;100314.56;5005150;28;20409;-70